createdAt,value
2023-02-17T00:00:31.052Z,9.27
2023-02-17T00:01:02.339Z,9.27
2023-02-17T00:01:34.315Z,9.27
2023-02-17T00:02:06.453Z,9.27
2023-02-17T00:02:34.695Z,9.27
2023-02-17T00:02:54.327Z,9.38
2023-02-17T00:03:26.402Z,9.38
2023-02-17T00:03:59.719Z,9.38
2023-02-17T00:04:30.347Z,9.38
2023-02-17T00:05:03.521Z,9.27
2023-02-17T00:05:34.296Z,9.27
2023-02-17T00:06:06.679Z,9.27
2023-02-17T00:06:34.274Z,9.27
2023-02-17T00:06:54.346Z,9.27
2023-02-17T00:07:26.361Z,9.27
2023-02-17T00:07:58.395Z,9.27
2023-02-17T00:08:30.374Z,9.27
2023-02-17T00:09:02.340Z,9.27
2023-02-17T00:09:34.588Z,9.27
2023-02-17T00:10:06.725Z,9.27
2023-02-17T00:10:35.321Z,9.27
2023-02-17T00:10:54.626Z,9.27
2023-02-17T00:11:26.432Z,9.38
2023-02-17T00:11:58.338Z,9.38
2023-02-17T00:12:30.349Z,9.38
2023-02-17T00:13:02.318Z,9.38
2023-02-17T00:13:35.028Z,9.50
2023-02-17T00:14:06.365Z,9.50
2023-02-17T00:14:35.529Z,9.50
2023-02-17T00:14:54.404Z,9.50
2023-02-17T00:15:26.873Z,9.50
2023-02-17T00:15:58.947Z,9.50
2023-02-17T00:16:30.423Z,9.50
2023-02-17T00:17:02.333Z,9.50
2023-02-17T00:17:34.324Z,9.50
2023-02-17T00:18:06.322Z,9.50
2023-02-17T00:18:35.280Z,9.50
2023-02-17T00:18:54.312Z,9.50
2023-02-17T00:19:26.330Z,9.50
2023-02-17T00:19:59.772Z,9.50
2023-02-17T00:20:30.625Z,9.50
2023-02-17T00:21:02.330Z,9.50
2023-02-17T00:21:34.299Z,9.50
2023-02-17T00:22:06.348Z,9.50
2023-02-17T00:22:35.275Z,9.50
2023-02-17T00:22:54.382Z,9.61
2023-02-17T00:23:26.384Z,9.61
2023-02-17T00:23:58.410Z,9.61
2023-02-17T00:24:30.361Z,9.61
2023-02-17T00:25:03.525Z,9.61
2023-02-17T00:25:34.841Z,9.61
2023-02-17T00:26:06.786Z,9.61
2023-02-17T00:26:35.470Z,9.61
2023-02-17T00:26:54.288Z,9.61
2023-02-17T00:27:26.349Z,9.61
2023-02-17T00:27:58.340Z,9.61
2023-02-17T00:28:30.355Z,9.61
2023-02-17T00:29:02.328Z,9.61
2023-02-17T00:29:35.250Z,9.61
2023-02-17T00:30:08.062Z,9.61
2023-02-17T00:30:35.603Z,9.61
2023-02-17T00:30:54.632Z,9.50
2023-02-17T00:31:26.534Z,9.50
2023-02-17T00:31:58.509Z,9.50
2023-02-17T00:32:30.424Z,9.50
2023-02-17T00:33:02.944Z,9.50
2023-02-17T00:33:34.729Z,9.50
2023-02-17T00:34:06.446Z,9.50
2023-02-17T00:34:35.301Z,9.50
2023-02-17T00:34:54.307Z,9.50
2023-02-17T00:35:26.679Z,9.50
2023-02-17T00:35:59.612Z,9.50
2023-02-17T00:36:30.529Z,9.61
2023-02-17T00:37:02.298Z,9.61
2023-02-17T00:37:34.531Z,9.61
2023-02-17T00:38:06.376Z,9.61
2023-02-17T00:38:35.291Z,9.61
2023-02-17T00:38:54.358Z,9.61
2023-02-17T00:39:26.367Z,9.61
2023-02-17T00:39:58.370Z,9.61
2023-02-17T00:40:30.656Z,9.61
2023-02-17T00:41:02.338Z,9.61
2023-02-17T00:41:34.294Z,9.61
2023-02-17T00:42:06.370Z,9.61
2023-02-17T00:42:35.278Z,9.61
2023-02-17T00:42:54.328Z,9.61
2023-02-17T00:43:26.391Z,9.61
2023-02-17T00:43:58.350Z,9.50
2023-02-17T00:44:30.386Z,9.50
2023-02-17T00:45:03.678Z,9.50
2023-02-17T00:45:35.167Z,9.50
2023-02-17T00:46:07.718Z,9.50
2023-02-17T00:46:35.312Z,9.50
2023-02-17T00:46:54.406Z,9.50
2023-02-17T00:47:26.467Z,9.50
2023-02-17T00:47:43.432Z,9.50
2023-02-17T00:48:14.822Z,9.50
2023-02-17T00:48:36.654Z,9.50
2023-02-17T00:49:02.356Z,9.50
2023-02-17T00:49:34.359Z,9.50
2023-02-17T00:50:06.632Z,9.50
2023-02-17T00:50:35.275Z,9.50
2023-02-17T00:50:54.559Z,9.50
2023-02-17T00:51:26.783Z,9.50
2023-02-17T00:51:44.807Z,9.50
2023-02-17T00:52:14.776Z,9.50
2023-02-17T00:52:35.790Z,9.38
2023-02-17T00:53:02.312Z,9.38
2023-02-17T00:53:34.340Z,9.38
2023-02-17T00:54:06.366Z,9.38
2023-02-17T00:54:35.272Z,9.38
2023-02-17T00:54:54.343Z,9.38
2023-02-17T00:55:26.777Z,9.38
2023-02-17T00:55:58.415Z,9.38
2023-02-17T00:56:31.039Z,9.38
2023-02-17T00:57:02.354Z,9.38
2023-02-17T00:57:34.357Z,9.38
2023-02-17T00:58:06.402Z,9.38
2023-02-17T00:58:35.295Z,9.38
2023-02-17T00:58:54.300Z,9.38
2023-02-17T00:59:26.374Z,9.38
2023-02-17T00:59:44.396Z,9.38
2023-02-17T01:00:16.613Z,9.38
2023-02-17T01:00:35.828Z,9.38
2023-02-17T01:01:02.358Z,9.38
2023-02-17T01:01:34.651Z,9.38
2023-02-17T01:02:06.326Z,9.38
2023-02-17T01:02:35.485Z,9.38
2023-02-17T01:02:54.326Z,9.38
2023-02-17T01:03:26.446Z,9.38
2023-02-17T01:03:58.358Z,9.38
2023-02-17T01:04:30.561Z,9.38
2023-02-17T01:05:03.560Z,9.38
2023-02-17T01:05:34.325Z,9.27
2023-02-17T01:06:07.389Z,9.27
2023-02-17T01:06:35.292Z,9.27
2023-02-17T01:06:54.329Z,9.27
2023-02-17T01:07:26.345Z,9.27
2023-02-17T01:07:59.048Z,9.27
2023-02-17T01:08:30.413Z,9.27
2023-02-17T01:09:02.309Z,9.27
2023-02-17T01:09:34.286Z,9.27
2023-02-17T01:10:06.637Z,9.27
2023-02-17T01:10:35.262Z,9.27
2023-02-17T01:10:54.632Z,9.27
2023-02-17T01:11:26.393Z,9.27
2023-02-17T01:11:59.150Z,9.27
2023-02-17T01:12:31.133Z,9.27
2023-02-17T01:13:02.360Z,9.27
2023-02-17T01:13:34.702Z,9.38
2023-02-17T01:14:06.438Z,9.38
2023-02-17T01:14:35.487Z,9.38
2023-02-17T01:14:54.314Z,9.38
2023-02-17T01:15:26.872Z,9.38
2023-02-17T01:15:44.603Z,9.38
2023-02-17T01:16:14.849Z,9.38
2023-02-17T01:16:35.806Z,9.38
2023-02-17T01:17:02.337Z,9.38
2023-02-17T01:17:34.300Z,9.38
2023-02-17T01:18:06.384Z,9.38
2023-02-17T01:18:35.268Z,9.38
2023-02-17T01:18:54.340Z,9.27
2023-02-17T01:19:26.420Z,9.27
2023-02-17T01:19:58.350Z,9.27
2023-02-17T01:20:30.724Z,9.27
2023-02-17T01:21:02.467Z,9.27
2023-02-17T01:21:34.346Z,9.27
2023-02-17T01:22:07.083Z,9.27
2023-02-17T01:22:35.471Z,9.27
2023-02-17T01:22:54.313Z,9.27
2023-02-17T01:23:26.388Z,9.27
2023-02-17T01:23:58.336Z,9.27
2023-02-17T01:24:30.394Z,9.27
2023-02-17T01:25:03.501Z,9.27
2023-02-17T01:25:34.329Z,9.27
2023-02-17T01:26:06.661Z,9.27
2023-02-17T01:26:35.265Z,9.27
2023-02-17T01:26:54.343Z,9.27
2023-02-17T01:27:26.388Z,9.27
2023-02-17T01:27:58.393Z,9.27
2023-02-17T01:28:30.982Z,9.27
2023-02-17T01:29:02.325Z,9.27
2023-02-17T01:29:34.353Z,9.27
2023-02-17T01:30:07.714Z,9.27
2023-02-17T01:30:35.509Z,9.27
2023-02-17T01:30:54.679Z,9.27
2023-02-17T01:31:26.475Z,9.27
2023-02-17T01:31:44.580Z,9.27
2023-02-17T01:32:14.778Z,9.27
2023-02-17T01:32:36.106Z,9.27
2023-02-17T01:33:02.926Z,9.27
2023-02-17T01:33:34.392Z,9.22
2023-02-17T01:34:06.348Z,9.22
2023-02-17T01:34:35.278Z,9.22
2023-02-17T01:34:54.334Z,9.22
2023-02-17T01:35:26.684Z,9.22
2023-02-17T01:35:58.364Z,9.22
2023-02-17T01:36:30.476Z,9.22
2023-02-17T01:37:02.315Z,9.11
2023-02-17T01:37:34.415Z,9.11
2023-02-17T01:38:07.200Z,9.11
2023-02-17T01:38:35.275Z,9.11
2023-02-17T01:38:54.304Z,9.11
2023-02-17T01:39:26.482Z,9.11
2023-02-17T01:39:43.351Z,9.22
2023-02-17T01:40:16.334Z,9.22
2023-02-17T01:40:36.758Z,9.22
2023-02-17T01:41:02.731Z,9.22
2023-02-17T01:41:34.371Z,9.22
2023-02-17T01:42:06.460Z,9.22
2023-02-17T01:42:35.855Z,9.22
2023-02-17T01:42:54.874Z,9.22
2023-02-17T01:43:26.959Z,9.22
2023-02-17T01:43:59.392Z,9.22
2023-02-17T01:44:31.691Z,9.22
2023-02-17T01:45:04.733Z,9.11
2023-02-17T01:45:34.622Z,9.11
2023-02-17T01:46:08.284Z,9.11
2023-02-17T01:46:35.545Z,9.11
2023-02-17T01:46:54.611Z,9.11
2023-02-17T01:47:26.520Z,9.11
2023-02-17T01:47:44.667Z,9.11
2023-02-17T01:48:15.217Z,9.11
2023-02-17T01:48:35.795Z,9.11
2023-02-17T01:49:02.518Z,9.11
2023-02-17T01:49:34.441Z,9.11
2023-02-17T01:50:07.310Z,9.11
2023-02-17T01:50:35.302Z,9.11
2023-02-17T01:50:55.521Z,9.11
2023-02-17T01:51:26.394Z,9.11
2023-02-17T01:51:58.618Z,9.11
2023-02-17T01:52:30.571Z,9.11
2023-02-17T01:53:02.365Z,9.11
2023-02-17T01:53:34.354Z,9.11
2023-02-17T01:54:06.352Z,9.11
2023-02-17T01:54:35.312Z,9.11
2023-02-17T01:54:54.334Z,9.11
2023-02-17T01:55:26.654Z,9.11
2023-02-17T01:55:58.363Z,9.11
2023-02-17T01:56:31.134Z,9.11
2023-02-17T01:57:02.353Z,9.11
2023-02-17T01:57:34.366Z,9.11
2023-02-17T01:58:06.369Z,9.11
2023-02-17T01:58:35.270Z,9.11
2023-02-17T01:58:54.513Z,9.11
2023-02-17T01:59:26.424Z,9.11
2023-02-17T01:59:44.621Z,9.11
2023-02-17T02:00:18.591Z,9.11
2023-02-17T02:00:35.844Z,9.11
2023-02-17T02:01:02.465Z,9.11
2023-02-17T02:01:34.990Z,9.11
2023-02-17T02:02:06.497Z,9.11
2023-02-17T02:02:35.417Z,9.11
2023-02-17T02:02:55.321Z,9.11
2023-02-17T02:03:26.366Z,9.11
2023-02-17T02:03:43.633Z,9.11
2023-02-17T02:04:14.978Z,9.22
2023-02-17T02:04:35.809Z,9.22
2023-02-17T02:05:03.796Z,9.27
2023-02-17T02:05:36.547Z,9.27
2023-02-17T02:06:07.389Z,9.27
2023-02-17T02:06:35.335Z,9.27
2023-02-17T02:06:54.326Z,9.27
2023-02-17T02:07:26.417Z,9.27
2023-02-17T02:07:58.382Z,9.27
2023-02-17T02:08:30.430Z,9.38
2023-02-17T02:09:02.433Z,9.38
2023-02-17T02:09:35.398Z,9.38
2023-02-17T02:10:06.682Z,9.38
2023-02-17T02:10:35.320Z,9.38
2023-02-17T02:10:54.681Z,9.38
2023-02-17T02:11:26.435Z,9.38
2023-02-17T02:11:58.362Z,9.38
2023-02-17T02:12:31.060Z,9.38
2023-02-17T02:13:02.365Z,9.38
2023-02-17T02:13:34.343Z,9.38
2023-02-17T02:14:06.725Z,9.38
2023-02-17T02:14:35.348Z,9.38
2023-02-17T02:14:54.340Z,9.38
2023-02-17T02:15:26.908Z,9.38
2023-02-17T02:15:44.618Z,9.38
2023-02-17T02:16:14.872Z,9.38
2023-02-17T02:16:35.826Z,9.38
2023-02-17T02:17:02.376Z,9.38
2023-02-17T02:17:34.748Z,9.38
2023-02-17T02:18:06.413Z,9.38
2023-02-17T02:18:35.395Z,9.38
2023-02-17T02:18:55.024Z,9.38
2023-02-17T02:19:26.357Z,9.38
2023-02-17T02:19:58.338Z,9.38
2023-02-17T02:20:31.013Z,9.38
2023-02-17T02:21:02.345Z,9.38
2023-02-17T02:21:34.320Z,9.27
2023-02-17T02:22:07.417Z,9.38
2023-02-17T02:22:35.276Z,9.38
2023-02-17T02:22:54.347Z,9.38
2023-02-17T02:23:26.396Z,9.38
2023-02-17T02:23:58.368Z,9.38
2023-02-17T02:24:30.659Z,9.38
2023-02-17T02:25:03.637Z,9.38
2023-02-17T02:25:34.345Z,9.38
2023-02-17T02:26:06.659Z,9.38
2023-02-17T02:26:35.453Z,9.38
2023-02-17T02:26:54.350Z,9.38
2023-02-17T02:27:26.366Z,9.38
2023-02-17T02:27:58.340Z,9.38
2023-02-17T02:28:31.083Z,9.38
2023-02-17T02:29:02.326Z,9.38
2023-02-17T02:29:34.393Z,9.38
2023-02-17T02:30:08.159Z,9.38
2023-02-17T02:30:35.382Z,9.38
2023-02-17T02:30:54.668Z,9.38
2023-02-17T02:31:26.491Z,9.38
2023-02-17T02:31:44.525Z,9.38
2023-02-17T02:32:14.955Z,9.38
2023-02-17T02:32:36.055Z,9.38
2023-02-17T02:33:03.121Z,9.38
2023-02-17T02:33:34.364Z,9.38
2023-02-17T02:34:06.365Z,9.38
2023-02-17T02:34:35.299Z,9.38
2023-02-17T02:34:55.089Z,9.38
2023-02-17T02:35:26.684Z,9.50
2023-02-17T02:35:58.336Z,9.50
2023-02-17T02:36:30.396Z,9.50
2023-02-17T02:37:02.305Z,9.50
2023-02-17T02:37:34.284Z,9.50
2023-02-17T02:38:07.267Z,9.61
2023-02-17T02:38:35.252Z,9.61
2023-02-17T02:38:54.304Z,9.61
2023-02-17T02:39:26.343Z,9.61
2023-02-17T02:39:58.322Z,9.61
2023-02-17T02:40:30.674Z,9.61
2023-02-17T02:41:02.408Z,9.61
2023-02-17T02:41:34.296Z,9.61
2023-02-17T02:42:06.307Z,9.61
2023-02-17T02:42:35.248Z,9.61
2023-02-17T02:42:54.305Z,9.61
2023-02-17T02:43:26.344Z,9.61
2023-02-17T02:43:58.373Z,9.61
2023-02-17T02:44:31.093Z,9.61
2023-02-17T02:45:03.750Z,9.61
2023-02-17T02:45:34.340Z,9.61
2023-02-17T02:46:08.070Z,9.61
2023-02-17T02:46:35.274Z,9.61
2023-02-17T02:46:54.324Z,9.61
2023-02-17T02:47:26.363Z,9.61
2023-02-17T02:47:44.617Z,9.61
2023-02-17T02:48:14.902Z,9.61
2023-02-17T02:48:35.789Z,9.61
2023-02-17T02:49:02.315Z,9.61
2023-02-17T02:49:34.274Z,9.61
2023-02-17T02:50:06.638Z,9.61
2023-02-17T02:50:35.263Z,9.61
2023-02-17T02:50:55.237Z,9.61
2023-02-17T02:51:26.294Z,9.61
2023-02-17T02:51:58.341Z,9.61
2023-02-17T02:52:30.363Z,9.61
2023-02-17T02:53:02.311Z,9.61
2023-02-17T02:53:34.975Z,9.61
2023-02-17T02:54:07.125Z,9.61
2023-02-17T02:54:35.308Z,9.61
2023-02-17T02:54:54.326Z,9.61
2023-02-17T02:55:26.930Z,9.61
2023-02-17T02:55:43.110Z,9.61
2023-02-17T02:56:14.842Z,9.50
2023-02-17T02:56:35.753Z,9.50
2023-02-17T02:57:02.309Z,9.50
2023-02-17T02:57:34.595Z,9.50
2023-02-17T02:58:06.274Z,9.50
2023-02-17T02:58:35.277Z,9.50
2023-02-17T02:58:54.285Z,9.50
2023-02-17T02:59:26.313Z,9.50
2023-02-17T02:59:58.307Z,9.50
2023-02-17T03:00:31.566Z,9.50
2023-02-17T03:01:02.598Z,9.50
2023-02-17T03:01:34.414Z,9.50
2023-02-17T03:02:06.272Z,9.50
2023-02-17T03:02:35.292Z,9.50
2023-02-17T03:02:54.319Z,9.50
2023-02-17T03:03:26.353Z,9.50
2023-02-17T03:03:44.551Z,9.50
2023-02-17T03:04:14.946Z,9.50
2023-02-17T03:04:35.776Z,9.50
2023-02-17T03:05:03.526Z,9.50
2023-02-17T03:05:34.320Z,9.50
2023-02-17T03:06:06.578Z,9.50
2023-02-17T03:06:35.284Z,9.50
2023-02-17T03:06:55.049Z,9.50
2023-02-17T03:07:26.308Z,9.50
2023-02-17T03:07:58.331Z,9.50
2023-02-17T03:08:30.361Z,9.50
2023-02-17T03:09:02.288Z,9.50
2023-02-17T03:09:34.254Z,9.50
2023-02-17T03:10:07.365Z,9.50
2023-02-17T03:10:35.312Z,9.50
2023-02-17T03:10:54.541Z,9.50
2023-02-17T03:11:26.334Z,9.50
2023-02-17T03:11:58.405Z,9.50
2023-02-17T03:12:30.439Z,9.50
2023-02-17T03:13:02.285Z,9.50
2023-02-17T03:13:34.329Z,9.50
2023-02-17T03:14:06.281Z,9.50
2023-02-17T03:14:35.377Z,9.50
2023-02-17T03:14:54.297Z,9.50
2023-02-17T03:15:26.892Z,9.50
2023-02-17T03:15:58.331Z,9.50
2023-02-17T03:16:31.140Z,9.50
2023-02-17T03:17:02.304Z,9.50
2023-02-17T03:17:34.272Z,9.38
2023-02-17T03:18:06.282Z,9.38
2023-02-17T03:18:35.323Z,9.38
2023-02-17T03:18:54.317Z,9.38
2023-02-17T03:19:26.341Z,9.38
2023-02-17T03:19:44.324Z,9.38
2023-02-17T03:20:15.086Z,9.38
2023-02-17T03:20:35.788Z,9.38
2023-02-17T03:21:02.323Z,9.38
2023-02-17T03:21:34.301Z,9.38
2023-02-17T03:22:06.315Z,9.38
2023-02-17T03:22:35.231Z,9.38
2023-02-17T03:22:55.071Z,9.38
2023-02-17T03:23:26.280Z,9.38
2023-02-17T03:23:58.322Z,9.38
2023-02-17T03:24:30.377Z,9.50
2023-02-17T03:25:03.553Z,9.50
2023-02-17T03:25:34.285Z,9.50
2023-02-17T03:26:08.156Z,9.50
2023-02-17T03:26:35.568Z,9.50
2023-02-17T03:26:54.284Z,9.50
2023-02-17T03:27:26.324Z,9.50
2023-02-17T03:27:58.293Z,9.50
2023-02-17T03:28:30.517Z,9.50
2023-02-17T03:29:02.332Z,9.50
2023-02-17T03:29:34.279Z,9.50
2023-02-17T03:30:07.796Z,9.50
2023-02-17T03:30:35.294Z,9.50
2023-02-17T03:30:54.576Z,9.50
2023-02-17T03:31:26.746Z,9.38
2023-02-17T03:31:58.382Z,9.38
2023-02-17T03:32:31.068Z,9.38
2023-02-17T03:33:03.005Z,9.38
2023-02-17T03:33:34.274Z,9.38
2023-02-17T03:34:06.270Z,9.38
2023-02-17T03:34:35.243Z,9.50
2023-02-17T03:34:54.338Z,9.50
2023-02-17T03:35:26.625Z,9.50
2023-02-17T03:35:44.673Z,9.50
2023-02-17T03:36:14.889Z,9.50
2023-02-17T03:36:35.740Z,9.50
2023-02-17T03:37:02.333Z,9.50
2023-02-17T03:37:34.313Z,9.50
2023-02-17T03:38:06.278Z,9.50
2023-02-17T03:38:35.231Z,9.50
2023-02-17T03:38:54.889Z,9.50
2023-02-17T03:39:26.402Z,9.50
2023-02-17T03:39:43.306Z,9.50
2023-02-17T03:40:15.136Z,9.50
2023-02-17T03:40:35.743Z,9.50
2023-02-17T03:41:02.281Z,9.50
2023-02-17T03:41:34.254Z,9.50
2023-02-17T03:42:07.148Z,9.50
2023-02-17T03:42:35.221Z,9.50
2023-02-17T03:42:54.277Z,9.50
2023-02-17T03:43:26.347Z,9.50
2023-02-17T03:43:58.333Z,9.50
2023-02-17T03:44:30.388Z,9.50
2023-02-17T03:45:03.596Z,9.50
2023-02-17T03:45:34.814Z,9.50
2023-02-17T03:46:07.794Z,9.50
2023-02-17T03:46:35.255Z,9.50
2023-02-17T03:46:54.281Z,9.50
2023-02-17T03:47:26.261Z,9.50
2023-02-17T03:47:58.286Z,9.61
2023-02-17T03:48:30.988Z,9.61
2023-02-17T03:49:02.300Z,9.61
2023-02-17T03:49:34.266Z,9.61
2023-02-17T03:50:06.532Z,9.61
2023-02-17T03:50:35.237Z,9.50
2023-02-17T03:50:54.549Z,9.50
2023-02-17T03:51:26.273Z,9.50
2023-02-17T03:51:43.868Z,9.50
2023-02-17T03:52:14.832Z,9.50
2023-02-17T03:52:35.749Z,9.50
2023-02-17T03:53:02.331Z,9.50
2023-02-17T03:53:34.372Z,9.50
2023-02-17T03:54:06.308Z,9.50
2023-02-17T03:54:35.240Z,9.50
2023-02-17T03:54:54.985Z,9.50
2023-02-17T03:55:26.618Z,9.61
2023-02-17T03:55:43.649Z,9.61
2023-02-17T03:56:14.803Z,9.61
2023-02-17T03:56:35.759Z,9.61
2023-02-17T03:57:02.248Z,9.61
2023-02-17T03:57:34.552Z,9.61
2023-02-17T03:58:07.151Z,9.61
2023-02-17T03:58:35.560Z,9.61
2023-02-17T03:58:54.330Z,9.61
2023-02-17T03:59:26.292Z,9.61
2023-02-17T03:59:58.274Z,9.61
2023-02-17T04:00:30.948Z,9.61
2023-02-17T04:01:02.439Z,9.61
2023-02-17T04:01:34.759Z,9.50
2023-02-17T04:02:06.242Z,9.50
2023-02-17T04:02:35.209Z,9.50
2023-02-17T04:02:54.279Z,9.50
2023-02-17T04:03:26.303Z,9.50
2023-02-17T04:03:58.356Z,9.50
2023-02-17T04:04:31.043Z,9.50
2023-02-17T04:05:03.498Z,9.50
2023-02-17T04:05:34.808Z,9.50
2023-02-17T04:06:06.622Z,9.50
2023-02-17T04:06:35.286Z,9.50
2023-02-17T04:06:54.281Z,9.50
2023-02-17T04:07:26.286Z,9.50
2023-02-17T04:07:44.511Z,9.50
2023-02-17T04:08:14.819Z,9.38
2023-02-17T04:08:35.780Z,9.38
2023-02-17T04:09:02.323Z,9.50
2023-02-17T04:09:34.342Z,9.50
2023-02-17T04:10:09.010Z,9.50
2023-02-17T04:10:35.257Z,9.50
2023-02-17T04:10:55.170Z,9.50
2023-02-17T04:11:26.362Z,9.50
2023-02-17T04:11:43.583Z,9.50
2023-02-17T04:12:14.842Z,9.38
2023-02-17T04:12:35.822Z,9.50
2023-02-17T04:13:02.266Z,9.50
2023-02-17T04:13:34.254Z,9.50
2023-02-17T04:14:07.113Z,9.50
2023-02-17T04:14:35.227Z,9.50
2023-02-17T04:14:54.232Z,9.50
2023-02-17T04:15:26.910Z,9.50
2023-02-17T04:15:58.365Z,9.50
2023-02-17T04:16:30.386Z,9.50
2023-02-17T04:17:02.271Z,9.50
2023-02-17T04:17:34.280Z,9.50
2023-02-17T04:18:06.259Z,9.50
2023-02-17T04:18:35.242Z,9.50
2023-02-17T04:18:54.267Z,9.61
2023-02-17T04:19:26.318Z,9.61
2023-02-17T04:19:58.397Z,9.61
2023-02-17T04:20:31.680Z,9.61
2023-02-17T04:21:02.236Z,9.61
2023-02-17T04:21:34.257Z,9.61
2023-02-17T04:22:06.277Z,9.72
2023-02-17T04:22:35.640Z,9.72
2023-02-17T04:22:54.266Z,9.72
2023-02-17T04:23:26.276Z,9.72
2023-02-17T04:23:46.763Z,9.72
2023-02-17T04:24:14.767Z,9.72
2023-02-17T04:24:35.772Z,9.72
2023-02-17T04:25:03.438Z,9.72
2023-02-17T04:25:34.265Z,9.72
2023-02-17T04:26:06.538Z,9.72
2023-02-17T04:26:35.654Z,9.72
2023-02-17T04:26:55.026Z,9.72
2023-02-17T04:27:26.287Z,9.72
2023-02-17T04:27:58.299Z,9.72
2023-02-17T04:28:30.349Z,9.72
2023-02-17T04:29:02.272Z,9.72
2023-02-17T04:29:34.274Z,9.72
2023-02-17T04:30:07.890Z,9.72
2023-02-17T04:30:35.431Z,9.72
2023-02-17T04:30:54.684Z,9.72
2023-02-17T04:31:26.363Z,9.77
2023-02-17T04:31:58.358Z,9.77
2023-02-17T04:32:30.392Z,9.77
2023-02-17T04:33:03.115Z,9.72
2023-02-17T04:33:34.258Z,9.72
2023-02-17T04:34:06.230Z,9.72
2023-02-17T04:34:35.319Z,9.72
2023-02-17T04:34:54.262Z,9.72
2023-02-17T04:35:26.582Z,9.77
2023-02-17T04:35:58.259Z,9.77
2023-02-17T04:36:31.104Z,9.77
2023-02-17T04:37:02.280Z,9.77
2023-02-17T04:37:34.269Z,9.72
2023-02-17T04:38:06.251Z,9.72
2023-02-17T04:38:35.241Z,9.72
2023-02-17T04:38:54.297Z,9.72
2023-02-17T04:39:26.336Z,9.72
2023-02-17T04:39:43.943Z,9.72
2023-02-17T04:40:15.074Z,9.72
2023-02-17T04:40:35.732Z,9.72
2023-02-17T04:41:03.042Z,9.72
2023-02-17T04:41:34.314Z,9.72
2023-02-17T04:42:06.272Z,9.72
2023-02-17T04:42:35.543Z,9.72
2023-02-17T04:42:54.959Z,9.72
2023-02-17T04:43:26.322Z,9.72
2023-02-17T04:43:58.277Z,9.72
2023-02-17T04:44:30.307Z,9.72
2023-02-17T04:45:03.651Z,9.77
2023-02-17T04:45:34.270Z,9.77
2023-02-17T04:46:07.751Z,9.77
2023-02-17T04:46:35.241Z,9.77
2023-02-17T04:46:54.272Z,9.77
2023-02-17T04:47:26.343Z,9.77
2023-02-17T04:47:58.297Z,9.77
2023-02-17T04:48:30.357Z,9.77
2023-02-17T04:49:02.234Z,9.77
2023-02-17T04:49:34.578Z,9.77
2023-02-17T04:50:06.591Z,9.72
2023-02-17T04:50:35.536Z,9.72
2023-02-17T04:50:54.598Z,9.72
2023-02-17T04:51:26.314Z,9.72
2023-02-17T04:51:58.318Z,9.72
2023-02-17T04:52:31.993Z,9.77
2023-02-17T04:53:02.222Z,9.77
2023-02-17T04:53:34.228Z,9.77
2023-02-17T04:54:06.264Z,9.77
2023-02-17T04:54:35.200Z,9.77
2023-02-17T04:54:54.265Z,9.77
2023-02-17T04:55:26.570Z,9.77
2023-02-17T04:55:44.532Z,9.72
2023-02-17T04:56:14.758Z,9.72
2023-02-17T04:56:36.073Z,9.72
2023-02-17T04:57:02.327Z,9.72
2023-02-17T04:57:35.156Z,9.77
2023-02-17T04:58:06.258Z,9.77
2023-02-17T04:58:35.235Z,9.77
2023-02-17T04:58:55.029Z,9.77
2023-02-17T04:59:26.317Z,9.77
2023-02-17T04:59:58.605Z,9.77
2023-02-17T05:00:30.904Z,9.72
2023-02-17T05:01:02.313Z,9.72
2023-02-17T05:01:34.445Z,9.72
2023-02-17T05:02:06.638Z,9.72
2023-02-17T05:02:35.162Z,9.72
2023-02-17T05:02:53.792Z,9.72
2023-02-17T05:03:25.877Z,9.72
2023-02-17T05:03:57.884Z,9.72
2023-02-17T05:04:29.943Z,9.72
2023-02-17T05:05:02.306Z,9.72
2023-02-17T05:05:33.732Z,9.72
2023-02-17T05:06:06.651Z,9.72
2023-02-17T05:06:37.491Z,9.72
2023-02-17T05:06:54.448Z,9.72
2023-02-17T05:07:31.033Z,9.72
2023-02-17T05:07:58.332Z,9.72
2023-02-17T05:08:31.000Z,9.72
2023-02-17T05:09:02.271Z,9.72
2023-02-17T05:09:34.240Z,9.72
2023-02-17T05:10:06.564Z,9.72
2023-02-17T05:10:35.351Z,9.72
2023-02-17T05:10:54.523Z,9.72
2023-02-17T05:11:26.758Z,9.72
2023-02-17T05:11:43.984Z,9.72
2023-02-17T05:12:14.237Z,9.72
2023-02-17T05:12:35.798Z,9.72
2023-02-17T05:13:02.317Z,9.72
2023-02-17T05:13:34.317Z,9.72
2023-02-17T05:14:06.296Z,9.72
2023-02-17T05:14:35.321Z,9.72
2023-02-17T05:14:54.989Z,9.72
2023-02-17T05:15:27.316Z,9.72
2023-02-17T05:15:58.390Z,9.72
2023-02-17T05:16:30.267Z,9.72
2023-02-17T05:17:02.266Z,9.72
2023-02-17T05:17:34.635Z,9.72
2023-02-17T05:18:06.940Z,9.72
2023-02-17T05:18:35.376Z,9.72
2023-02-17T05:18:54.240Z,9.72
2023-02-17T05:19:26.803Z,9.72
2023-02-17T05:19:58.344Z,9.72
2023-02-17T05:20:30.575Z,9.77
2023-02-17T05:21:02.278Z,9.77
2023-02-17T05:21:34.847Z,9.77
2023-02-17T05:22:06.397Z,9.77
2023-02-17T05:22:35.287Z,9.77
2023-02-17T05:22:54.227Z,9.77
2023-02-17T05:23:26.783Z,9.77
2023-02-17T05:23:58.305Z,9.77
2023-02-17T05:24:30.944Z,9.77
2023-02-17T05:25:03.358Z,9.77
2023-02-17T05:25:34.231Z,9.77
2023-02-17T05:26:06.602Z,9.77
2023-02-17T05:26:35.465Z,9.77
2023-02-17T05:26:54.263Z,9.77
2023-02-17T05:27:26.709Z,9.77
2023-02-17T05:27:49.850Z,9.77
2023-02-17T05:28:14.218Z,9.77
2023-02-17T05:28:35.792Z,9.77
2023-02-17T05:29:02.275Z,9.77
2023-02-17T05:29:34.247Z,9.77
2023-02-17T05:30:07.674Z,9.77
2023-02-17T05:30:35.324Z,9.77
2023-02-17T05:30:55.478Z,9.77
2023-02-17T05:31:26.799Z,9.77
2023-02-17T05:31:58.384Z,9.77
2023-02-17T05:32:30.283Z,9.77
2023-02-17T05:33:02.913Z,9.77
2023-02-17T05:33:34.271Z,9.77
2023-02-17T05:34:06.927Z,9.77
2023-02-17T05:34:35.332Z,9.77
2023-02-17T05:34:54.270Z,9.77
2023-02-17T05:35:27.115Z,9.77
2023-02-17T05:35:58.372Z,9.77
2023-02-17T05:36:30.292Z,9.77
2023-02-17T05:37:02.310Z,9.77
2023-02-17T05:37:34.304Z,9.77
2023-02-17T05:38:06.268Z,9.77
2023-02-17T05:38:35.648Z,9.77
2023-02-17T05:38:54.212Z,9.77
2023-02-17T05:39:26.821Z,9.77
2023-02-17T05:39:58.299Z,9.77
2023-02-17T05:40:31.327Z,9.88
2023-02-17T05:41:02.278Z,9.88
2023-02-17T05:41:34.563Z,9.88
2023-02-17T05:42:06.277Z,9.88
2023-02-17T05:42:35.224Z,9.88
2023-02-17T05:42:54.249Z,9.88
2023-02-17T05:43:26.793Z,9.88
2023-02-17T05:43:44.106Z,9.88
2023-02-17T05:44:14.256Z,9.88
2023-02-17T05:44:35.803Z,9.88
2023-02-17T05:45:03.624Z,9.88
2023-02-17T05:45:34.308Z,9.88
2023-02-17T05:46:07.647Z,9.88
2023-02-17T05:46:35.353Z,9.88
2023-02-17T05:46:55.198Z,9.88
2023-02-17T05:47:27.746Z,9.88
2023-02-17T05:47:58.328Z,9.88
2023-02-17T05:48:30.297Z,9.88
2023-02-17T05:49:02.284Z,9.88
2023-02-17T05:49:34.796Z,9.88
2023-02-17T05:50:07.324Z,9.88
2023-02-17T05:50:35.691Z,9.88
2023-02-17T05:50:54.525Z,9.88
2023-02-17T05:51:26.779Z,9.88
2023-02-17T05:51:58.706Z,9.88
2023-02-17T05:52:30.318Z,9.88
2023-02-17T05:53:02.269Z,9.88
2023-02-17T05:53:34.274Z,10.00
2023-02-17T05:54:06.276Z,10.00
2023-02-17T05:54:35.291Z,10.00
2023-02-17T05:54:54.265Z,10.00
2023-02-17T05:55:27.025Z,10.00
2023-02-17T05:55:58.301Z,10.00
2023-02-17T05:56:31.056Z,10.00
2023-02-17T05:57:02.261Z,10.00
2023-02-17T05:57:34.375Z,10.00
2023-02-17T05:58:06.364Z,10.00
2023-02-17T05:58:35.787Z,10.00
2023-02-17T05:58:54.270Z,10.00
2023-02-17T05:59:26.720Z,10.00
2023-02-17T05:59:46.168Z,10.00
2023-02-17T06:00:15.850Z,10.00
2023-02-17T06:00:35.969Z,10.00
2023-02-17T06:01:02.327Z,10.00
2023-02-17T06:01:36.049Z,10.00
2023-02-17T06:02:06.270Z,10.00
2023-02-17T06:02:35.416Z,10.00
2023-02-17T06:02:55.114Z,10.00
2023-02-17T06:03:26.772Z,10.00
2023-02-17T06:03:58.321Z,10.00
2023-02-17T06:04:30.319Z,10.00
2023-02-17T06:05:03.540Z,10.00
2023-02-17T06:05:34.285Z,10.00
2023-02-17T06:06:07.383Z,10.00
2023-02-17T06:06:35.291Z,10.00
2023-02-17T06:06:54.269Z,10.00
2023-02-17T06:07:26.744Z,10.00
2023-02-17T06:07:58.328Z,10.00
2023-02-17T06:08:30.308Z,10.00
2023-02-17T06:09:02.298Z,10.00
2023-02-17T06:09:34.299Z,10.00
2023-02-17T06:10:06.562Z,10.00
2023-02-17T06:10:35.317Z,10.00
2023-02-17T06:10:54.493Z,10.00
2023-02-17T06:11:26.707Z,10.00
2023-02-17T06:11:58.294Z,10.00
2023-02-17T06:12:31.044Z,10.00
2023-02-17T06:13:02.284Z,10.00
2023-02-17T06:13:34.260Z,10.00
2023-02-17T06:14:06.241Z,10.00
2023-02-17T06:14:35.268Z,10.00
2023-02-17T06:14:54.255Z,10.00
2023-02-17T06:15:27.313Z,10.00
2023-02-17T06:15:44.170Z,10.00
2023-02-17T06:16:14.319Z,10.00
2023-02-17T06:16:35.757Z,10.00
2023-02-17T06:17:02.296Z,10.00
2023-02-17T06:17:34.309Z,10.00
2023-02-17T06:18:06.289Z,10.00
2023-02-17T06:18:35.278Z,10.00
2023-02-17T06:18:55.050Z,10.00
2023-02-17T06:19:26.839Z,10.00
2023-02-17T06:19:58.306Z,10.00
2023-02-17T06:20:30.556Z,10.00
2023-02-17T06:21:02.302Z,10.00
2023-02-17T06:21:34.265Z,10.00
2023-02-17T06:22:06.973Z,10.00
2023-02-17T06:22:35.282Z,10.00
2023-02-17T06:22:54.265Z,10.00
2023-02-17T06:23:26.792Z,10.00
2023-02-17T06:23:43.302Z,10.00